createdAt,value
2019-02-20T00:00:15.793Z,12.57
2019-02-20T00:02:46.013Z,12.43
2019-02-20T00:05:16.225Z,12.00
2019-02-20T00:07:46.944Z,12.23
2019-02-20T00:10:20.302Z,12.27
2019-02-20T00:12:50.372Z,12.00
2019-02-20T00:15:20.385Z,12.03
2019-02-20T00:17:50.412Z,12.00
2019-02-20T00:20:20.829Z,12.90
2019-02-20T00:22:51.086Z,11.37
2019-02-20T00:25:21.392Z,11.17
2019-02-20T00:27:51.901Z,13.67
2019-02-20T00:30:22.053Z,11.03
2019-02-20T00:32:52.046Z,12.00
2019-02-20T00:35:22.037Z,12.27
2019-02-20T00:37:52.092Z,11.90
2019-02-20T00:40:22.089Z,11.23
2019-02-20T00:42:52.174Z,11.90
2019-02-20T00:45:53.299Z,12.50
2019-02-20T00:48:30.365Z,10.70
2019-02-20T00:51:09.486Z,12.80
2019-02-20T00:53:45.568Z,11.23
2019-02-20T00:56:16.025Z,11.67
2019-02-20T00:58:46.057Z,10.30
2019-02-20T01:01:16.721Z,12.03
2019-02-20T01:03:46.693Z,10.47
2019-02-20T01:06:16.884Z,10.80
2019-02-20T01:08:46.896Z,11.80
2019-02-20T01:11:19.265Z,11.47
2019-02-20T01:13:48.986Z,12.50
2019-02-20T01:16:19.016Z,11.57
2019-02-20T01:18:49.596Z,11.37
2019-02-20T01:21:19.605Z,11.77
2019-02-20T01:23:49.717Z,11.50
2019-02-20T01:26:19.684Z,12.20
2019-02-20T01:28:49.642Z,11.00
2019-02-20T01:31:19.638Z,11.17
2019-02-20T01:33:49.589Z,12.13
2019-02-20T01:36:19.700Z,11.67
2019-02-20T01:38:49.795Z,10.73
2019-02-20T01:41:20.272Z,11.67
2019-02-20T01:43:50.317Z,10.50
2019-02-20T01:46:20.273Z,11.80
2019-02-20T01:48:50.211Z,11.43
2019-02-20T01:51:20.253Z,11.70
2019-02-20T01:53:50.587Z,11.23
2019-02-20T01:56:20.791Z,12.43
2019-02-20T01:58:50.829Z,12.13
2019-02-20T02:01:20.881Z,11.57
2019-02-20T02:03:51.041Z,11.80
2019-02-20T02:06:21.529Z,10.77
2019-02-20T02:08:51.574Z,11.53
2019-02-20T02:11:21.566Z,11.60
2019-02-20T02:13:51.609Z,11.00
2019-02-20T02:16:21.861Z,10.27
2019-02-20T02:18:51.879Z,11.23
2019-02-20T02:21:21.956Z,9.93
2019-02-20T02:23:52.373Z,11.40
2019-02-20T02:26:22.430Z,10.63
2019-02-20T02:28:52.381Z,10.67
2019-02-20T02:31:23.557Z,10.93
2019-02-20T02:33:53.709Z,10.20
2019-02-20T02:36:23.728Z,11.90
2019-02-20T02:38:53.897Z,10.43
2019-02-20T02:41:23.843Z,11.13
2019-02-20T02:43:53.969Z,10.93
2019-02-20T02:46:24.214Z,10.47
2019-02-20T02:48:54.866Z,11.10
2019-02-20T02:51:24.820Z,10.80
2019-02-20T02:53:55.105Z,11.30
2019-02-20T02:56:26.540Z,10.83
2019-02-20T02:58:56.504Z,11.23
2019-02-20T03:01:26.725Z,11.30
2019-02-20T03:03:57.010Z,10.77
2019-02-20T03:06:27.074Z,10.80
2019-02-20T03:08:57.069Z,11.20
2019-02-20T03:11:28.226Z,11.60
2019-02-20T03:13:58.463Z,11.43
2019-02-20T03:16:28.672Z,10.83
2019-02-20T03:18:58.642Z,10.80
2019-02-20T03:21:28.610Z,11.73
2019-02-20T03:23:58.732Z,11.33
2019-02-20T03:26:28.996Z,12.00
2019-02-20T03:28:58.964Z,11.20
2019-02-20T03:31:29.075Z,11.53
2019-02-20T03:34:00.645Z,10.80
2019-02-20T03:36:30.840Z,12.67
2019-02-20T03:39:00.845Z,10.60
2019-02-20T03:41:31.239Z,12.73
2019-02-20T03:44:01.426Z,11.83
2019-02-20T03:46:31.433Z,11.67
2019-02-20T03:49:01.498Z,12.30
2019-02-20T03:51:31.450Z,11.80
2019-02-20T03:54:01.431Z,11.93
2019-02-20T03:56:31.622Z,11.73
2019-02-20T03:59:02.565Z,12.27
2019-02-20T04:01:32.536Z,11.17
2019-02-20T04:04:02.668Z,11.87
2019-02-20T04:06:32.831Z,12.27
2019-02-20T04:09:02.778Z,12.43
2019-02-20T04:11:32.833Z,12.30
2019-02-20T04:14:02.898Z,11.77
2019-02-20T04:16:33.150Z,12.17
2019-02-20T04:19:03.085Z,11.50
2019-02-20T04:21:33.119Z,11.90
2019-02-20T04:24:03.218Z,11.47
2019-02-20T04:26:33.267Z,12.27
2019-02-20T04:29:03.376Z,11.37
2019-02-20T04:31:33.554Z,11.73
2019-02-20T04:34:03.986Z,12.60
2019-02-20T04:36:34.001Z,11.97
2019-02-20T04:39:05.509Z,12.63
2019-02-20T04:41:35.508Z,12.80
2019-02-20T04:44:05.598Z,11.80
2019-02-20T04:46:35.580Z,12.43
2019-02-20T04:49:05.574Z,12.60
2019-02-20T04:51:35.561Z,11.93
2019-02-20T04:54:13.060Z,12.00
2019-02-20T04:56:37.426Z,12.63
2019-02-20T04:59:07.400Z,11.77
2019-02-20T05:01:37.422Z,12.77
2019-02-20T05:04:07.422Z,13.70
2019-02-20T05:06:37.409Z,14.30
2019-02-20T05:09:07.891Z,14.00
2019-02-20T05:11:37.999Z,13.10
2019-02-20T05:14:07.999Z,12.50
2019-02-20T05:16:38.562Z,12.10
2019-02-20T05:19:08.527Z,12.37
2019-02-20T05:21:38.693Z,12.27
2019-02-20T05:24:08.911Z,13.93
2019-02-20T05:26:38.915Z,14.80
2019-02-20T05:29:08.890Z,14.27
2019-02-20T05:31:38.906Z,13.60
2019-02-20T05:34:08.914Z,13.13
2019-02-20T05:36:38.880Z,17.47
2019-02-20T05:39:08.822Z,15.03
2019-02-20T05:41:38.816Z,15.30
2019-02-20T05:44:08.849Z,13.73
2019-02-20T05:46:38.835Z,13.70
2019-02-20T05:49:08.912Z,12.33
2019-02-20T05:51:39.186Z,12.70
2019-02-20T05:54:09.359Z,13.90
2019-02-20T05:56:39.512Z,12.20
2019-02-20T05:59:09.531Z,11.93
2019-02-20T06:01:40.838Z,11.80
2019-02-20T06:04:10.939Z,11.40
2019-02-20T06:06:42.929Z,10.70
2019-02-20T06:09:12.933Z,11.00
2019-02-20T06:11:42.978Z,10.90
2019-02-20T06:14:13.017Z,11.63
2019-02-20T06:16:43.013Z,10.57
2019-02-20T06:19:13.051Z,10.97
2019-02-20T06:21:43.370Z,12.40
2019-02-20T06:24:13.401Z,11.67
2019-02-20T06:26:43.501Z,10.87
2019-02-20T06:29:13.613Z,12.17
2019-02-20T06:31:43.780Z,13.50
2019-02-20T06:34:13.800Z,10.63
2019-02-20T06:36:43.867Z,10.90
2019-02-20T06:39:14.102Z,11.60
2019-02-20T06:41:44.198Z,12.23
2019-02-20T06:44:14.245Z,11.10
2019-02-20T06:46:44.269Z,11.73
2019-02-20T06:49:14.309Z,10.63
2019-02-20T06:51:44.346Z,10.77
2019-02-20T06:54:14.435Z,11.37
2019-02-20T06:56:44.540Z,9.97
2019-02-20T06:59:14.593Z,10.67
2019-02-20T07:01:44.665Z,11.13
2019-02-20T07:04:15.879Z,10.23
2019-02-20T07:06:56.381Z,10.63
2019-02-20T07:10:37.618Z,10.10
2019-02-20T07:13:38.784Z,10.53
2019-02-20T07:16:33.685Z,10.07
2019-02-20T07:19:24.931Z,10.70
2019-02-20T07:22:44.414Z,8.30
2019-02-20T07:25:46.478Z,10.67
2019-02-20T07:28:50.295Z,8.80
2019-02-20T07:31:20.890Z,10.90
2019-02-20T07:33:51.254Z,10.57
2019-02-20T07:36:21.457Z,11.40
2019-02-20T07:38:51.506Z,13.43
2019-02-20T07:41:21.481Z,11.23
2019-02-20T07:43:51.986Z,11.10
2019-02-20T07:46:22.077Z,11.67
2019-02-20T07:48:52.097Z,10.20
2019-02-20T07:51:22.121Z,10.47
2019-02-20T07:53:52.164Z,11.00
2019-02-20T07:56:23.987Z,10.50
2019-02-20T07:58:54.640Z,10.43
2019-02-20T08:01:24.660Z,12.50
2019-02-20T08:03:54.741Z,11.37
2019-02-20T08:06:24.677Z,12.03
2019-02-20T08:08:54.805Z,14.90
2019-02-20T08:11:24.850Z,12.87
2019-02-20T08:13:54.862Z,12.43
2019-02-20T08:16:24.989Z,13.17
2019-02-20T08:18:55.366Z,11.67
2019-02-20T08:21:28.105Z,10.20
2019-02-20T08:23:58.121Z,13.10
2019-02-20T08:26:28.217Z,10.70
2019-02-20T08:28:58.366Z,13.83
2019-02-20T08:31:28.559Z,14.00
2019-02-20T08:33:59.115Z,12.80
2019-02-20T08:36:29.097Z,10.30
2019-02-20T08:38:59.129Z,10.20
2019-02-20T08:41:29.135Z,11.73
2019-02-20T08:43:59.178Z,14.20
2019-02-20T08:46:29.304Z,13.20
2019-02-20T08:48:59.281Z,12.77
2019-02-20T08:51:29.986Z,13.43
2019-02-20T08:54:00.053Z,11.33
2019-02-20T08:56:30.362Z,10.87
2019-02-20T08:59:00.701Z,9.80
2019-02-20T09:01:30.942Z,9.80
2019-02-20T09:04:01.403Z,9.37
2019-02-20T09:06:31.550Z,9.13
2019-02-20T09:09:01.665Z,8.00
2019-02-20T09:11:32.372Z,8.03
2019-02-20T09:14:02.536Z,9.50
2019-02-20T09:16:33.533Z,9.13
2019-02-20T09:19:03.855Z,11.13
2019-02-20T09:21:33.910Z,10.17
2019-02-20T09:24:03.931Z,10.17
2019-02-20T09:26:34.385Z,9.00
2019-02-20T09:29:05.011Z,9.23
2019-02-20T09:31:35.025Z,10.10
2019-02-20T09:34:05.213Z,10.00
2019-02-20T09:36:35.182Z,10.60
2019-02-20T09:39:33.040Z,10.70
2019-02-20T09:42:03.214Z,11.30
2019-02-20T09:44:36.418Z,11.00
2019-02-20T09:47:06.490Z,11.30
2019-02-20T09:49:36.741Z,11.90
2019-02-20T09:52:06.768Z,12.37
2019-02-20T09:54:36.817Z,10.87
2019-02-20T09:57:06.916Z,10.17
2019-02-20T09:59:36.886Z,10.43
2019-02-20T10:02:06.862Z,10.00
2019-02-20T10:04:36.999Z,10.50
2019-02-20T10:07:06.998Z,11.00
2019-02-20T10:09:37.150Z,9.70
2019-02-20T10:12:07.629Z,10.37
2019-02-20T10:14:37.737Z,9.40
2019-02-20T10:17:07.744Z,8.80
2019-02-20T10:19:37.791Z,9.50
2019-02-20T10:22:07.779Z,9.47
2019-02-20T10:24:37.769Z,9.33
2019-02-20T10:27:09.081Z,9.10
2019-02-20T10:29:39.230Z,9.93
2019-02-20T10:32:09.293Z,10.43
2019-02-20T10:34:39.313Z,10.43
2019-02-20T10:37:09.391Z,8.60
2019-02-20T10:39:39.550Z,9.27
2019-02-20T10:42:09.677Z,7.63
2019-02-20T10:44:41.125Z,7.60
2019-02-20T10:47:11.241Z,7.73
2019-02-20T10:49:41.579Z,8.10
2019-02-20T10:52:11.578Z,6.90
2019-02-20T10:54:42.082Z,6.97
2019-02-20T10:57:12.257Z,6.57
2019-02-20T10:59:42.450Z,7.57
2019-02-20T11:02:12.671Z,7.07
2019-02-20T11:04:43.074Z,6.83
2019-02-20T11:07:13.303Z,7.27
2019-02-20T11:09:46.200Z,6.90
2019-02-20T11:12:15.959Z,6.00
2019-02-20T11:14:46.095Z,6.50
2019-02-20T11:17:16.183Z,6.53
2019-02-20T11:19:46.243Z,7.30
2019-02-20T11:22:18.079Z,7.40
2019-02-20T11:24:48.366Z,6.40
2019-02-20T11:27:19.500Z,6.80
2019-02-20T11:29:49.548Z,7.10
2019-02-20T11:32:19.541Z,7.47
2019-02-20T11:34:49.551Z,7.87
2019-02-20T11:37:19.542Z,7.30
2019-02-20T11:39:49.741Z,6.80
2019-02-20T11:42:20.207Z,6.53
2019-02-20T11:44:50.262Z,8.10
2019-02-20T11:47:20.395Z,6.60
2019-02-20T11:49:50.508Z,7.20
2019-02-20T11:52:20.609Z,6.90
2019-02-20T11:54:50.723Z,7.17
2019-02-20T11:57:21.367Z,7.63
2019-02-20T11:59:52.411Z,7.80
2019-02-20T12:02:25.477Z,7.67
2019-02-20T12:04:56.371Z,7.37
2019-02-20T12:07:26.594Z,6.67
2019-02-20T12:09:56.647Z,6.97
2019-02-20T12:12:26.732Z,7.57
2019-02-20T12:14:57.549Z,7.90
2019-02-20T12:17:28.266Z,6.70
2019-02-20T12:19:58.288Z,7.47
2019-02-20T12:22:28.320Z,8.33
2019-02-20T12:24:59.339Z,7.77
2019-02-20T12:27:29.611Z,8.90
2019-02-20T12:30:00.353Z,7.63
2019-02-20T12:32:31.029Z,7.53
2019-02-20T12:35:00.989Z,7.13
2019-02-20T12:37:31.342Z,7.60
2019-02-20T12:40:01.424Z,8.07
2019-02-20T12:42:31.430Z,8.33
2019-02-20T12:45:01.406Z,7.83
2019-02-20T12:47:31.329Z,8.07
2019-02-20T12:50:01.361Z,7.37
2019-02-20T12:52:31.462Z,8.90
2019-02-20T12:55:01.518Z,8.90
2019-02-20T12:57:31.605Z,8.13
2019-02-20T13:00:01.603Z,7.50
2019-02-20T13:02:31.576Z,7.70
2019-02-20T13:05:01.635Z,8.67
2019-02-20T13:07:33.155Z,7.90
2019-02-20T13:10:03.339Z,9.83
2019-02-20T13:12:33.515Z,9.00
2019-02-20T13:15:03.517Z,6.10
2019-02-20T13:17:33.583Z,5.50
2019-02-20T13:20:03.555Z,4.43
2019-02-20T13:22:33.558Z,5.50
2019-02-20T13:25:04.215Z,3.47
2019-02-20T13:27:34.341Z,4.57
2019-02-20T13:30:05.109Z,4.80
2019-02-20T13:32:35.102Z,5.00
2019-02-20T13:35:05.342Z,5.83
2019-02-20T13:37:35.422Z,5.47
2019-02-20T13:40:05.814Z,5.83
2019-02-20T13:42:36.001Z,5.00
2019-02-20T13:45:06.329Z,6.17
2019-02-20T13:47:36.458Z,4.90
2019-02-20T13:50:08.590Z,4.90
2019-02-20T13:52:38.650Z,4.37
2019-02-20T13:55:08.889Z,4.50
2019-02-20T13:57:38.942Z,5.77
2019-02-20T14:00:09.489Z,6.33
2019-02-20T14:02:39.549Z,5.73
2019-02-20T14:05:10.010Z,5.97
2019-02-20T14:07:40.973Z,5.90
2019-02-20T14:10:12.135Z,5.70
2019-02-20T14:12:42.729Z,5.47
2019-02-20T14:15:12.973Z,5.37
2019-02-20T14:17:42.986Z,5.30
2019-02-20T14:20:13.677Z,4.40
2019-02-20T14:22:43.879Z,5.03
2019-02-20T14:25:13.897Z,4.40
2019-02-20T14:27:44.273Z,4.50
2019-02-20T14:30:14.530Z,5.63
2019-02-20T14:32:44.524Z,5.30
2019-02-20T14:35:15.081Z,4.43
2019-02-20T14:37:45.509Z,5.07
2019-02-20T14:40:15.610Z,5.80
2019-02-20T14:42:45.792Z,5.27
2019-02-20T14:45:17.113Z,5.40
2019-02-20T14:47:47.177Z,5.30
2019-02-20T14:50:17.251Z,5.00
2019-02-20T14:52:47.378Z,5.80
2019-02-20T14:55:18.345Z,5.87
2019-02-20T14:57:48.389Z,5.47
2019-02-20T15:00:18.508Z,6.10
2019-02-20T15:02:48.485Z,5.80
2019-02-20T15:05:19.158Z,6.50
2019-02-20T15:07:49.242Z,5.70
2019-02-20T15:10:19.801Z,5.60
2019-02-20T15:12:49.885Z,5.70
2019-02-20T15:15:19.998Z,5.87
2019-02-20T15:17:50.065Z,6.10
2019-02-20T15:20:20.417Z,6.97
2019-02-20T15:22:50.621Z,7.43
2019-02-20T15:25:21.216Z,6.60
2019-02-20T15:27:51.602Z,7.40
2019-02-20T15:30:22.662Z,5.93
2019-02-20T15:32:52.974Z,6.23
2019-02-20T15:35:23.074Z,6.10
2019-02-20T15:37:53.145Z,6.50
2019-02-20T15:40:23.506Z,6.80
2019-02-20T15:42:53.607Z,6.90
2019-02-20T15:45:23.578Z,6.43
2019-02-20T15:47:54.169Z,6.07
2019-02-20T15:50:24.159Z,6.97
2019-02-20T15:52:54.227Z,5.67
2019-02-20T15:55:24.215Z,6.57
2019-02-20T15:57:54.213Z,7.23
2019-02-20T16:00:26.217Z,6.60
2019-02-20T16:02:56.869Z,6.60
2019-02-20T16:05:26.924Z,6.47
2019-02-20T16:07:56.977Z,7.30
2019-02-20T16:10:27.050Z,7.23
2019-02-20T16:12:57.590Z,6.93
2019-02-20T16:15:27.557Z,6.40
2019-02-20T16:17:57.850Z,5.60
2019-02-20T16:20:27.902Z,6.83
2019-02-20T16:22:58.490Z,7.20
2019-02-20T16:25:28.547Z,6.93
2019-02-20T16:27:58.876Z,6.53
2019-02-20T16:30:28.878Z,6.37
2019-02-20T16:33:00.762Z,5.80
2019-02-20T16:35:30.666Z,6.20
2019-02-20T16:38:01.722Z,6.57
2019-02-20T16:40:31.973Z,6.40
2019-02-20T16:43:03.799Z,6.10
2019-02-20T16:45:33.622Z,6.13
2019-02-20T16:48:03.798Z,7.20
2019-02-20T16:50:34.245Z,6.13
2019-02-20T16:53:04.450Z,7.00
2019-02-20T16:55:35.085Z,7.00
2019-02-20T16:58:05.570Z,8.37
2019-02-20T17:00:35.993Z,8.93
2019-02-20T17:03:06.822Z,8.47
2019-02-20T17:05:36.854Z,7.17
2019-02-20T17:08:07.370Z,7.90
2019-02-20T17:10:37.410Z,7.73
2019-02-20T17:13:08.512Z,7.43
2019-02-20T17:15:38.561Z,6.13
2019-02-20T17:18:08.631Z,6.20
2019-02-20T17:20:39.541Z,6.70
2019-02-20T17:23:11.005Z,6.40
2019-02-20T17:25:41.043Z,6.83
2019-02-20T17:28:11.597Z,7.10
2019-02-20T17:30:41.696Z,7.17
2019-02-20T17:33:12.526Z,7.77
2019-02-20T17:35:42.760Z,5.90
2019-02-20T17:38:13.033Z,7.60
2019-02-20T17:40:43.580Z,8.87
2019-02-20T17:43:14.698Z,8.87
2019-02-20T17:45:44.749Z,9.33
2019-02-20T17:48:14.751Z,7.90
2019-02-20T17:50:44.912Z,7.83
2019-02-20T17:53:15.378Z,9.90
2019-02-20T17:55:45.435Z,9.80
2019-02-20T17:58:15.719Z,8.53
2019-02-20T18:00:45.744Z,8.67
2019-02-20T18:03:15.756Z,8.37
2019-02-20T18:05:45.764Z,8.10
2019-02-20T18:08:15.798Z,8.40
2019-02-20T18:10:45.779Z,8.70
2019-02-20T18:13:15.980Z,8.40
2019-02-20T18:15:46.481Z,9.80
2019-02-20T18:18:16.537Z,8.10
2019-02-20T18:20:46.724Z,8.47
2019-02-20T18:23:17.847Z,9.43
2019-02-20T18:25:48.877Z,10.17
2019-02-20T18:28:24.534Z,10.50
2019-02-20T18:30:51.535Z,9.77
2019-02-20T18:33:23.810Z,9.50
2019-02-20T18:35:55.679Z,9.17
2019-02-20T18:38:27.893Z,10.70
2019-02-20T18:40:58.968Z,11.40
2019-02-20T18:43:29.246Z,9.00
2019-02-20T18:45:59.740Z,9.63
2019-02-20T18:48:29.734Z,9.10
2019-02-20T18:51:00.296Z,9.50
2019-02-20T18:53:31.139Z,9.20
2019-02-20T18:56:01.379Z,9.50
2019-02-20T18:58:34.054Z,9.33
2019-02-20T19:01:03.347Z,10.07
2019-02-20T19:03:33.914Z,9.10
2019-02-20T19:06:04.058Z,9.20
2019-02-20T19:08:45.926Z,9.83
2019-02-20T19:11:58.769Z,10.93
2019-02-20T19:15:12.582Z,10.00
2019-02-20T19:18:08.491Z,9.50
2019-02-20T19:20:53.864Z,10.20
2019-02-20T19:24:12.677Z,9.73
2019-02-20T19:27:08.862Z,10.60
2019-02-20T19:30:27.863Z,10.37
2019-02-20T19:33:36.363Z,12.10
2019-02-20T19:36:43.270Z,10.13
2019-02-20T19:39:40.476Z,10.43
2019-02-20T19:42:53.194Z,10.87
2019-02-20T19:45:55.347Z,10.73
2019-02-20T19:48:37.586Z,11.03
2019-02-20T19:51:35.516Z,11.77
2019-02-20T19:54:32.350Z,10.50
2019-02-20T19:57:37.657Z,9.83
2019-02-20T20:00:38.712Z,11.10
2019-02-20T20:03:32.570Z,10.47
2019-02-20T20:06:41.613Z,9.70
2019-02-20T20:09:51.137Z,10.47
2019-02-20T20:13:11.181Z,9.93
2019-02-20T20:16:09.889Z,10.13
2019-02-20T20:19:09.675Z,10.73
2019-02-20T20:22:05.729Z,11.03
2019-02-20T20:25:24.813Z,10.40
2019-02-20T20:28:54.281Z,10.30
2019-02-20T20:31:51.510Z,10.17
2019-02-20T20:34:52.146Z,10.33
2019-02-20T20:37:33.239Z,10.90
2019-02-20T20:40:49.197Z,10.53
2019-02-20T20:43:41.733Z,11.53
2019-02-20T20:46:53.839Z,10.33
2019-02-20T20:50:15.794Z,10.10
2019-02-20T20:53:11.873Z,10.20
2019-02-20T20:56:28.482Z,9.67
2019-02-20T20:59:39.670Z,9.90
2019-02-20T21:02:36.451Z,10.27
2019-02-20T21:05:57.001Z,9.43
2019-02-20T21:08:42.968Z,9.80
2019-02-20T21:12:06.572Z,10.07
2019-02-20T21:15:05.984Z,9.00
2019-02-20T21:18:23.301Z,10.10
2019-02-20T21:21:27.565Z,9.93
2019-02-20T21:24:35.046Z,9.80
2019-02-20T21:28:00.774Z,9.87
2019-02-20T21:31:06.222Z,9.97
2019-02-20T21:34:18.092Z,9.80
2019-02-20T21:37:30.054Z,9.77
2019-02-20T21:40:48.930Z,9.60
2019-02-20T21:43:44.810Z,9.83
2019-02-20T21:46:52.973Z,9.60
2019-02-20T21:50:03.932Z,9.40
2019-02-20T21:53:17.348Z,10.17
2019-02-20T21:56:14.603Z,9.23
2019-02-20T21:59:18.040Z,10.60
2019-02-20T22:02:22.285Z,9.90
2019-02-20T22:05:20.902Z,9.53
2019-02-20T22:08:21.723Z,10.30
2019-02-20T22:11:32.043Z,9.20
2019-02-20T22:14:43.076Z,9.50
2019-02-20T22:17:52.640Z,10.37
2019-02-20T22:20:58.118Z,9.93
2019-02-20T22:24:17.113Z,10.17
2019-02-20T22:27:30.466Z,9.77
2019-02-20T22:30:40.354Z,9.93
2019-02-20T22:33:28.691Z,9.13
2019-02-20T22:36:29.019Z,9.80
2019-02-20T22:39:42.960Z,10.00
2019-02-20T22:42:55.209Z,9.27
2019-02-20T22:45:51.401Z,9.10
2019-02-20T22:48:41.334Z,10.03
2019-02-20T22:51:33.553Z,10.87
2019-02-20T22:54:39.989Z,9.73
2019-02-20T22:57:39.378Z,10.13
2019-02-20T23:01:11.281Z,10.40
2019-02-20T23:04:05.503Z,10.60
2019-02-20T23:07:04.440Z,10.13
2019-02-20T23:09:59.120Z,9.83
2019-02-20T23:13:13.982Z,11.50
2019-02-20T23:15:43.985Z,10.60
2019-02-20T23:18:13.954Z,11.17
2019-02-20T23:20:44.069Z,11.10
2019-02-20T23:23:14.553Z,10.30
2019-02-20T23:25:44.643Z,10.90
2019-02-20T23:28:15.114Z,11.80
2019-02-20T23:30:45.303Z,11.07
2019-02-20T23:33:15.308Z,10.70
2019-02-20T23:35:45.278Z,10.60
2019-02-20T23:38:15.285Z,10.47
2019-02-20T23:40:45.530Z,11.50
2019-02-20T23:43:15.791Z,10.10
2019-02-20T23:45:46.053Z,10.60
2019-02-20T23:48:16.470Z,10.63
2019-02-20T23:50:46.468Z,10.90
2019-02-20T23:53:18.675Z,11.13
2019-02-20T23:55:48.421Z,11.10
2019-02-20T23:58:18.739Z,10.90
